Rotterdam — PDGS — position and weather

sailwx.info

Track history (hours):
 
Tides and Currents Weather Stations Pressure Air Temp Water Temp Dewpoint Dewpoint Depression Visibility Wind Speed Wind Dir Waves Ship Positions

Rotterdam

Operator: Holland America Line

Last reported at 2019-Jul-22 05:30 UTC. Time now 2019-Jul-22 05:34 UTC.
Position N 78°56' E 011°56'.

Length 228 m; beam 29 m.

Type: Ship. MMSI: 24616700.

Date/timePositionNaut miles runAvg speedWind from/ knotsBaromVisibWave heightAir tempDewpointWater temp
2019-Jul-22 05:30N 78°56' E 011°56'0 0.0
2019-Jul-22 05:00N 78°56' E 011°56'0 0.0
2019-Jul-22 04:30N 78°56' E 011°56'0 0.1
2019-Jul-22 04:00N 78°56' E 011°56'0 0.2
2019-Jul-22 03:30N 78°56' E 011°56'3 5.8
2019-Jul-22 03:00N 78°59' E 011°47'510.5
2019-Jul-22 02:30N 79°01' E 011°23'510.2
2019-Jul-22 02:00N 79°03' E 010°59'510.2
2019-Jul-22 01:29N 79°06' E 010°33'510.0
2019-Jul-22 01:00N 79°08' E 010°10'510.2
2019-Jul-22 00:30N 79°10' E 009°47'5 9.8
2019-Jul-22 00:00N 79°14' E 009°34'5 9.8
2019-Jul-21 23:29N 79°19' E 009°28'5 0.2
2019-Jul-20 23:31N 79°21' E 009°03'014.9
2019-Jul-20 23:30N 79°21' E 009°03'714.8
2019-Jul-20 23:00N 79°14' E 009°02'714.9
2019-Jul-20 22:30N 79°06' E 009°02'815.1
2019-Jul-20 22:00N 78°58' E 009°03'715.1
2019-Jul-20 21:31N 78°51' E 009°06'1315.2
2019-Jul-20 20:38N 78°38' E 009°23'215.4
2019-Jul-20 20:30N 78°36' E 009°25'815.8
2019-Jul-20 20:00N 78°29' E 009°37'715.2
2019-Jul-20 19:30N 78°22' E 009°54'815.2
2019-Jul-20 19:00N 78°16' E 010°19'918.1
2019-Jul-20 18:30N 78°12' E 010°57'918.4
2019-Jul-20 18:00N 78°08' E 011°37'918.3
2019-Jul-20 17:30N 78°05' E 012°20'918.1
2019-Jul-20 17:00N 78°06' E 013°03'918.1
2019-Jul-20 16:30N 78°09' E 013°45'917.9
2019-Jul-20 16:00N 78°12' E 014°26'917.9
2019-Jul-20 15:30N 78°15' E 015°06'612.1
2019-Jul-20 15:00N 78°14' E 015°35'0 0.8
2019-Jul-20 14:28N 78°14' E 015°36'0 0.0
2019-Jul-20 13:58N 78°14' E 015°36'0 0.0
2019-Jul-20 13:28N 78°14' E 015°36'0 0.0
2019-Jul-20 12:58N 78°14' E 015°36'0 0.0
2019-Jul-20 12:28N 78°14' E 015°36'0 0.0
2019-Jul-20 11:58N 78°14' E 015°36'0 0.0
2019-Jul-20 11:28N 78°14' E 015°36'0 0.0
2019-Jul-20 10:58N 78°14' E 015°36'0 0.0
2019-Jul-20 10:28N 78°14' E 015°36'0 0.0
2019-Jul-20 09:58N 78°14' E 015°36'0 0.0
2019-Jul-20 09:28N 78°14' E 015°36'0 0.0
2019-Jul-20 08:58N 78°14' E 015°36'0 0.0
2019-Jul-20 08:28N 78°14' E 015°36'0 0.0
2019-Jul-20 07:58N 78°14' E 015°36'0 0.0
2019-Jul-20 07:28N 78°14' E 015°36'0 0.0
2019-Jul-20 06:58N 78°14' E 015°36'0 0.0
2019-Jul-20 06:28N 78°14' E 015°36'0 0.0
2019-Jul-20 05:58N 78°14' E 015°36'0 0.0
2019-Jul-20 05:28N 78°14' E 015°36'1 2.1
2019-Jul-20 05:00N 78°15' E 015°37'510.0
2019-Jul-20 04:30N 78°16' E 015°14'714.1
2019-Jul-20 04:00N 78°13' E 014°41'714.9
2019-Jul-20 03:30N 78°10' E 014°09'815.8
2019-Jul-20 03:00N 78°08' E 013°32'816.0
2019-Jul-20 02:30N 78°06' E 012°54'816.1
2019-Jul-20 02:00N 78°04' E 012°16'816.4
2019-Jul-20 01:30N 78°02' E 011°37'815.6
2019-Jul-20 01:00N 77°60' E 011°01'816.5
2019-Jul-20 00:31N 77°52' E 010°46'816.4
2019-Jul-20 00:00N 77°45' E 010°30'816.5
2019-Jul-19 23:30N 77°37' E 010°15'816.9
2019-Jul-19 23:00N 77°29' E 009°59'65917.9
2019-Jul-18 10:09N 66°35' E 006°13'317.9
2019-Jul-18 09:59N 66°32' E 006°13'1117.8
2019-Jul-18 09:22N 66°21' E 006°13'717.8
2019-Jul-18 09:00N 66°14' E 006°12'917.7
2019-Jul-18 08:30N 66°05' E 006°11'917.5
2019-Jul-18 07:59N 65°56' E 006°10'917.5
2019-Jul-18 07:30N 65°48' E 006°09'917.7
2019-Jul-18 07:00N 65°39' E 006°08'1117.8
2019-Jul-18 06:23N 65°28' E 006°07'818.1
2019-Jul-18 05:58N 65°20' E 006°06'1018.0
2019-Jul-18 05:25N 65°11' E 006°05'717.9
2019-Jul-18 05:00N 65°03' E 006°04'918.0
2019-Jul-18 04:29N 64°54' E 006°03'1018.0
2019-Jul-18 03:57N 64°44' E 006°03'818.2
2019-Jul-18 03:31N 64°36' E 006°02'918.2
2019-Jul-18 02:59N 64°27' E 006°01'918.4
2019-Jul-18 02:30N 64°18' E 005°60'918.3
2019-Jul-18 01:59N 64°08' E 005°59'918.5
2019-Jul-18 01:30N 63°59' E 005°58'918.5
2019-Jul-18 01:00N 63°50' E 005°57'918.4
2019-Jul-18 00:30N 63°41' E 005°56'918.2
2019-Jul-18 00:00N 63°32' E 005°55'918.1
2019-Jul-17 23:30N 63°23' E 005°52'918.0
2019-Jul-17 23:00N 63°14' E 005°49'918.2
2019-Jul-17 22:31N 63°05' E 005°47'918.1
2019-Jul-17 22:00N 62°56' E 005°44'917.8
2019-Jul-17 21:29N 62°47' E 005°41'817.5
2019-Jul-17 21:01N 62°39' E 005°39'816.3
2019-Jul-17 20:30N 62°30' E 005°42'917.9
2019-Jul-17 20:00N 62°27' E 006°00'5 9.5
2019-Jul-17 19:30N 62°28' E 006°10'0 0.9
2019-Jul-17 19:00N 62°28' E 006°09'0 0.0
2019-Jul-17 18:31N 62°28' E 006°09'0 0.0
2019-Jul-17 18:00N 62°28' E 006°09'0 0.0
2019-Jul-17 17:30N 62°28' E 006°09'0 0.0
2019-Jul-17 17:00N 62°28' E 006°09'0 0.0
2019-Jul-17 16:30N 62°28' E 006°09'0 0.0
2019-Jul-17 16:00N 62°28' E 006°09'0 0.0
2019-Jul-17 15:30N 62°28' E 006°09'0 0.0
2019-Jul-17 15:00N 62°28' E 006°09'0 0.0
2019-Jul-17 14:30N 62°28' E 006°09'0 0.0
2019-Jul-17 14:00N 62°28' E 006°09'0 0.0
2019-Jul-17 13:30N 62°28' E 006°09'0 0.0
2019-Jul-17 13:00N 62°28' E 006°09'0 0.0
2019-Jul-17 12:30N 62°28' E 006°09'0 0.0
2019-Jul-17 12:00N 62°28' E 006°09'0 0.0
2019-Jul-17 11:30N 62°28' E 006°09'0 0.0
2019-Jul-17 11:00N 62°28' E 006°09'0 0.0
2019-Jul-17 10:30N 62°28' E 006°09'0 0.0
2019-Jul-17 10:00N 62°28' E 006°09'0 0.0
2019-Jul-17 09:30N 62°28' E 006°09'0 0.0
2019-Jul-17 09:00N 62°28' E 006°09'0 0.0
2019-Jul-17 08:30N 62°28' E 006°09'0 0.0
2019-Jul-17 08:00N 62°28' E 006°09'0 0.0
2019-Jul-17 07:30N 62°28' E 006°09'0 0.7
2019-Jul-17 07:00N 62°28' E 006°09'3 5.8
2019-Jul-17 06:30N 62°27' E 006°04'612.6
2019-Jul-17 06:00N 62°28' E 005°50'715.2
2019-Jul-17 05:30N 62°32' E 005°36'816.2
2019-Jul-17 05:00N 62°29' E 005°19'816.4
2019-Jul-17 04:30N 62°26' E 005°03'816.7
2019-Jul-17 04:00N 62°22' E 004°46'916.9
2019-Jul-17 03:30N 62°16' E 004°34'917.0
2019-Jul-17 03:00N 62°09' E 004°23'816.7
2019-Jul-17 02:30N 62°02' E 004°14'816.6
2019-Jul-17 02:00N 61°54' E 004°11'917.2
2019-Jul-17 01:30N 61°45' E 004°11'917.4
2019-Jul-17 00:59N 61°37' E 004°10'917.7
2019-Jul-17 00:30N 61°28' E 004°09'917.6
2019-Jul-17 00:00N 61°19' E 004°09'917.6
2019-Jul-16 23:30N 61°10' E 004°08'917.6
2019-Jul-16 23:00N 61°02' E 004°08'917.3
2019-Jul-16 22:30N 60°53' E 004°08'917.3
2019-Jul-16 22:00N 60°44' E 004°08'917.7
2019-Jul-16 21:30N 60°35' E 004°08'918.1
2019-Jul-16 21:00N 60°26' E 004°09'917.8
2019-Jul-16 20:30N 60°18' E 004°10'917.8
2019-Jul-16 20:00N 60°09' E 004°11'918.1
2019-Jul-16 19:30N 59°60' E 004°11'918.3
2019-Jul-16 19:00N 59°50' E 004°11'918.3
2019-Jul-16 18:30N 59°41' E 004°11'918.3
2019-Jul-16 18:00N 59°32' E 004°11'917.6
2019-Jul-16 17:30N 59°23' E 004°11'917.6
2019-Jul-16 17:00N 59°14' E 004°11'917.5
2019-Jul-16 16:30N 59°06' E 004°11'917.6
2019-Jul-16 15:59N 58°57' E 004°12'817.4
2019-Jul-16 15:30N 58°49' E 004°16'917.9
2019-Jul-16 15:00N 58°40' E 004°22'917.8
2019-Jul-16 14:30N 58°32' E 004°27'917.5
2019-Jul-16 14:00N 58°23' E 004°32'917.3
2019-Jul-16 13:28N 58°15' E 004°37'817.2
2019-Jul-16 13:00N 58°07' E 004°42'1019.4
2019-Jul-16 12:30N 57°58' E 004°47'1020.1
2019-Jul-16 12:00N 57°48' E 004°53'919.3
2019-Jul-16 11:30N 57°39' E 004°59'1019.8
2019-Jul-16 11:00N 57°29' E 005°04'1019.9
2019-Jul-16 10:30N 57°20' E 005°10'1119.9
2019-Jul-16 09:58N 57°10' E 005°15'920.0
2019-Jul-16 09:30N 57°01' E 005°20'1020.1
2019-Jul-16 09:00N 56°51' E 005°25'1020.2
2019-Jul-16 08:30N 56°41' E 005°30'1020.3
2019-Jul-16 08:00N 56°31' E 005°31'1020.3
2019-Jul-16 07:30N 56°21' E 005°32'1020.3
2019-Jul-16 06:59N 56°11' E 005°33'1020.3
2019-Jul-16 06:30N 56°01' E 005°34'1020.3
2019-Jul-16 06:00N 55°50' E 005°35'1020.3
2019-Jul-16 05:30N 55°40' E 005°36'1020.2
2019-Jul-16 05:00N 55°30' E 005°36'1020.1
2019-Jul-16 04:30N 55°20' E 005°33'1020.1
2019-Jul-16 04:00N 55°10' E 005°30'1020.2
2019-Jul-16 03:29N 55°00' E 005°28'1020.2
2019-Jul-16 02:59N 54°50' E 005°26'8219.9
2019-Jul-15 22:51N 53°31' E 004°48'513.3
2019-Jul-15 22:30N 53°27' E 004°44'1417.2
2019-Jul-15 21:42N 53°15' E 004°33'519.4
2019-Jul-15 21:25N 53°10' E 004°30'819.3
2019-Jul-15 21:00N 53°03' E 004°23'918.9
2019-Jul-15 20:30N 52°54' E 004°17'917.3
2019-Jul-15 20:00N 52°46' E 004°10'815.7
2019-Jul-15 19:30N 52°39' E 004°07'714.5
2019-Jul-15 19:00N 52°32' E 004°11'816.5
2019-Jul-15 18:30N 52°29' E 004°23'612.6
2019-Jul-15 18:01N 52°28' E 004°33'2 3.7
2019-Jul-15 17:31N 52°28' E 004°37'1 1.9
2019-Jul-15 17:00N 52°28' E 004°38'4 7.2
2019-Jul-15 16:30N 52°26' E 004°43'4 7.3
2019-Jul-15 16:00N 52°25' E 004°49'3 6.6
2019-Jul-15 15:30N 52°24' E 004°54'1 2.3
2019-Jul-15 15:00N 52°23' E 004°55'0 0.1
2019-Jul-15 14:29N 52°23' E 004°55'0 0.0
2019-Jul-15 13:59N 52°23' E 004°55'0 0.0
2019-Jul-15 13:29N 52°23' E 004°55'0 0.0
2019-Jul-15 12:59N 52°23' E 004°55'0 0.0
2019-Jul-15 12:29N 52°23' E 004°55'0 0.0
2019-Jul-15 11:59N 52°23' E 004°55'0 0.0
2019-Jul-15 11:29N 52°23' E 004°55'0 0.0
2019-Jul-15 10:59N 52°23' E 004°55'0 0.0
2019-Jul-15 10:29N 52°23' E 004°55'0 0.0
2019-Jul-15 09:59N 52°23' E 004°55'0 0.0
2019-Jul-15 09:29N 52°23' E 004°55'0 0.0
2019-Jul-15 08:59N 52°23' E 004°55'0 0.0
2019-Jul-15 08:29N 52°23' E 004°55'0 0.0
2019-Jul-15 07:59N 52°23' E 004°55'0 0.0
2019-Jul-15 07:29N 52°23' E 004°55'0 0.0
2019-Jul-15 06:59N 52°23' E 004°55'0 0.0
2019-Jul-15 06:29N 52°23' E 004°55'0 0.0
2019-Jul-15 05:59N 52°23' E 004°55'0 0.0
2019-Jul-15 05:29N 52°23' E 004°55'0 0.0
2019-Jul-15 04:59N 52°23' E 004°55'0 0.0
2019-Jul-15 04:29N 52°23' E 004°55'0 0.2
2019-Jul-15 04:01N 52°23' E 004°55'0 0.1
2019-Jul-15 03:31N 52°23' E 004°55'2 4.9
2019-Jul-15 03:01N 52°25' E 004°52'3 5.9
2019-Jul-15 02:31N 52°25' E 004°48'4 7.2
2019-Jul-15 02:01N 52°26' E 004°42'3 6.8
2019-Jul-15 01:30N 52°28' E 004°37'0 0.6
2019-Jul-15 01:01N 52°28' E 004°37'2 3.9
2019-Jul-15 00:30N 52°28' E 004°33'510.9
2019-Jul-15 00:00N 52°29' E 004°24'816.0
2019-Jul-14 23:30N 52°29' E 004°11'816.8
2019-Jul-14 23:00N 52°36' E 004°04'1320.7
2019-Jul-14 22:24N 52°48' E 003°57'821.0
2019-Jul-14 22:00N 52°56' E 003°60'1121.2
2019-Jul-14 21:30N 53°04' E 004°12'1121.6
2019-Jul-14 21:00N 53°12' E 004°24'1121.7
2019-Jul-14 20:30N 53°22' E 004°30'1221.4
2019-Jul-14 19:58N 53°33' E 004°37'1121.9
2019-Jul-14 19:27N 53°43' E 004°43'1822.5
2019-Jul-14 18:39N 53°60' E 004°56'1022.4
2019-Jul-14 18:13N 54°09' E 005°02'622.3
2019-Jul-14 17:57N 54°14' E 005°08'1322.4
2019-Jul-14 17:22N 54°24' E 005°20'822.4
2019-Jul-14 16:59N 54°32' E 005°28'1122.6
2019-Jul-14 16:30N 54°41' E 005°38'1020.9
2019-Jul-14 16:00N 54°50' E 005°46'1120.7
2019-Jul-14 15:30N 54°60' E 005°55'1020.8
2019-Jul-14 15:00N 55°09' E 006°02'1020.7
2019-Jul-14 14:30N 55°18' E 006°10'1020.6
2019-Jul-14 13:59N 55°28' E 006°19'1020.6
2019-Jul-14 13:30N 55°36' E 006°27'1020.6
2019-Jul-14 13:00N 55°46' E 006°36'1020.6
2019-Jul-14 12:30N 55°55' E 006°44'1020.6
2019-Jul-14 12:00N 56°04' E 006°52'1020.5
2019-Jul-14 11:30N 56°13' E 006°59'1120.6
2019-Jul-14 11:00N 56°22' E 007°10'1020.7
2019-Jul-14 10:29N 56°31' E 007°19'1020.8
2019-Jul-14 09:59N 56°40' E 007°27'1020.9
2019-Jul-14 09:30N 56°49' E 007°37'1021.1
2019-Jul-14 09:00N 56°58' E 007°47'1020.8
2019-Jul-14 08:30N 57°07' E 007°56'1020.1
2019-Jul-14 08:00N 57°15' E 008°08'1020.1
2019-Jul-14 07:30N 57°22' E 008°21'1020.5
2019-Jul-14 07:00N 57°27' E 008°37'1020.3
2019-Jul-14 06:30N 57°33' E 008°54'1020.4
2019-Jul-14 06:00N 57°38' E 009°10'1020.3
2019-Jul-14 05:30N 57°43' E 009°26'1020.4
2019-Jul-14 05:00N 57°47' E 009°44'1020.4
2019-Jul-14 04:30N 57°51' E 010°01'1020.8
2019-Jul-14 04:00N 57°51' E 010°21'1020.3
2019-Jul-14 03:30N 57°51' E 010°40'1019.0
2019-Jul-14 03:00N 57°46' E 010°55'1020.1
2019-Jul-14 02:30N 57°39' E 011°08'1020.5
2019-Jul-14 02:00N 57°32' E 011°23'1020.3
2019-Jul-14 01:30N 57°23' E 011°32'1121.1
2019-Jul-14 01:00N 57°13' E 011°38'1020.5
2019-Jul-14 00:30N 57°03' E 011°45'1121.2
2019-Jul-14 00:00N 56°53' E 011°50'1020.1
2019-Jul-13 23:30N 56°44' E 011°57'1020.0
2019-Jul-13 23:00N 56°34' E 012°00'816.3
2019-Jul-13 22:30N 56°26' E 012°01'1019.2
2019-Jul-13 22:00N 56°17' E 012°09'1020.2
2019-Jul-13 21:30N 56°12' E 012°24'1020.1
2019-Jul-13 21:01N 56°05' E 012°37'816.8
2019-Jul-13 20:31N 55°57' E 012°43'816.5
2019-Jul-13 20:00N 55°49' E 012°44'713.4
2019-Jul-13 19:30N 55°43' E 012°38'1 2.9
2019-Jul-13 19:00N 55°42' E 012°36'0 0.0
2019-Jul-13 18:30N 55°42' E 012°36'0 0.0
2019-Jul-13 18:00N 55°42' E 012°36'0 0.0
2019-Jul-13 17:30N 55°42' E 012°36'0 0.0
2019-Jul-13 17:00N 55°42' E 012°36'0 0.0
2019-Jul-13 16:30N 55°42' E 012°36'0 0.0
2019-Jul-13 16:00N 55°42' E 012°36'0 0.0
2019-Jul-13 15:30N 55°42' E 012°36'0 0.0
2019-Jul-13 15:00N 55°42' E 012°36'0 0.0
2019-Jul-13 14:30N 55°42' E 012°36'0 0.0
2019-Jul-13 14:00N 55°42' E 012°36'0 0.0
2019-Jul-13 13:30N 55°42' E 012°36'0 0.0
2019-Jul-13 13:00N 55°42' E 012°36'0 0.0
2019-Jul-13 12:30N 55°42' E 012°36'0 0.0
2019-Jul-13 12:00N 55°42' E 012°36'0 0.0
2019-Jul-13 11:30N 55°42' E 012°36'0 0.0
2019-Jul-13 11:00N 55°42' E 012°36'0 0.0
2019-Jul-13 10:30N 55°42' E 012°36'0 0.0
2019-Jul-13 10:00N 55°42' E 012°36'0 0.0
2019-Jul-13 09:30N 55°42' E 012°36'0 0.0
2019-Jul-13 09:00N 55°42' E 012°36'0 0.0
2019-Jul-13 08:30N 55°42' E 012°36'0 0.0
2019-Jul-13 08:00N 55°42' E 012°36'0 0.0
2019-Jul-13 07:30N 55°42' E 012°36'0 0.0
2019-Jul-13 07:00N 55°42' E 012°36'0 0.0
2019-Jul-13 06:30N 55°42' E 012°36'0 0.0
2019-Jul-13 06:00N 55°42' E 012°36'0 0.0
2019-Jul-13 05:30N 55°42' E 012°36'0 0.8
2019-Jul-13 05:00N 55°42' E 012°36'5 9.5
2019-Jul-13 04:31N 55°46' E 012°42'611.4
2019-Jul-13 04:01N 55°52' E 012°41'612.6
2019-Jul-13 03:30N 55°58' E 012°40'714.1
2019-Jul-13 03:00N 56°05' E 012°36'714.2
2019-Jul-13 02:30N 56°09' E 012°25'714.9
2019-Jul-13 02:01N 56°13' E 012°15'815.3
2019-Jul-13 01:30N 56°18' E 012°04'815.2
2019-Jul-13 01:00N 56°22' E 011°52'715.1
2019-Jul-13 00:31N 56°21' E 011°39'715.0
2019-Jul-13 00:01N 56°18' E 011°26'815.7
2019-Jul-12 23:30N 56°12' E 011°18'815.6
2019-Jul-12 23:00N 56°06' E 011°10'1418.0
2019-Jul-12 22:12N 55°54' E 010°56'1717.0
2019-Jul-12 21:13N 55°38' E 010°49'418.2
2019-Jul-12 20:59N 55°33' E 010°52'817.5
2019-Jul-12 20:31N 55°26' E 010°59'917.4
2019-Jul-12 20:00N 55°18' E 011°03'816.8
2019-Jul-12 19:30N 55°09' E 011°04'918.1
2019-Jul-12 19:01N 55°00' E 011°02'918.1
2019-Jul-12 18:31N 54°53' E 010°54'918.4
2019-Jul-12 18:01N 54°44' E 010°52'917.5
2019-Jul-12 17:31N 54°38' E 011°04'918.9
2019-Jul-12 17:01N 54°34' E 011°19'1121.0
2019-Jul-12 16:31N 54°30' E 011°35'1019.9
2019-Jul-12 16:00N 54°27' E 011°52'1020.1
2019-Jul-12 15:31N 54°26' E 012°09'1019.1
2019-Jul-12 15:00N 54°35' E 012°16'1220.1
2019-Jul-12 14:24N 54°43' E 012°31'820.3
2019-Jul-12 14:00N 54°48' E 012°43'1220.4
2019-Jul-12 13:24N 54°51' E 013°03'1621.2
2019-Jul-12 12:39N 54°56' E 013°29'319.8
2019-Jul-12 12:29N 54°57' E 013°35'919.7
2019-Jul-12 12:00N 55°01' E 013°50'1120.7
2019-Jul-12 11:29N 55°06' E 014°07'1020.9
2019-Jul-12 11:00N 55°14' E 014°17'1120.8
2019-Jul-12 10:29N 55°23' E 014°28'1020.3
2019-Jul-12 10:01N 55°28' E 014°41'1020.6
2019-Jul-12 09:31N 55°33' E 014°58'1020.9
2019-Jul-12 09:01N 55°37' E 015°14'1020.8
2019-Jul-12 08:31N 55°43' E 015°30'1120.7
2019-Jul-12 07:59N 55°49' E 015°47'1420.8
2019-Jul-12 07:19N 55°56' E 016°08'720.9
2019-Jul-12 07:00N 55°59' E 016°18'  
Track history (hours):
 
Tides and Currents Weather Stations Pressure Air Temp Water Temp Dewpoint Dewpoint Depression Visibility Wind Speed Wind Dir Waves Ship Positions

Rotterdam

Operator: Holland America Line

Last reported at 2019-Jul-22 05:30 UTC. Time now 2019-Jul-22 05:34 UTC.
Position N 78°56' E 011°56'.

Length 228 m; beam 29 m.

Type: Ship. MMSI: 24616700.

Date/timePositionNaut miles runAvg speedWind from/ knotsBaromVisibWave heightAir tempDewpointWater temp
2019-Jul-22 05:30N 78°56' E 011°56'0 0.0
2019-Jul-22 05:00N 78°56' E 011°56'0 0.0
2019-Jul-22 04:30N 78°56' E 011°56'0 0.1
2019-Jul-22 04:00N 78°56' E 011°56'0 0.2
2019-Jul-22 03:30N 78°56' E 011°56'3 5.8
2019-Jul-22 03:00N 78°59' E 011°47'510.5
2019-Jul-22 02:30N 79°01' E 011°23'510.2
2019-Jul-22 02:00N 79°03' E 010°59'510.2
2019-Jul-22 01:29N 79°06' E 010°33'510.0
2019-Jul-22 01:00N 79°08' E 010°10'510.2
2019-Jul-22 00:30N 79°10' E 009°47'5 9.8
2019-Jul-22 00:00N 79°14' E 009°34'5 9.8
2019-Jul-21 23:29N 79°19' E 009°28'5 0.2
2019-Jul-20 23:31N 79°21' E 009°03'014.9
2019-Jul-20 23:30N 79°21' E 009°03'714.8
2019-Jul-20 23:00N 79°14' E 009°02'714.9
2019-Jul-20 22:30N 79°06' E 009°02'815.1
2019-Jul-20 22:00N 78°58' E 009°03'715.1
2019-Jul-20 21:31N 78°51' E 009°06'1315.2
2019-Jul-20 20:38N 78°38' E 009°23'215.4
2019-Jul-20 20:30N 78°36' E 009°25'815.8
2019-Jul-20 20:00N 78°29' E 009°37'715.2
2019-Jul-20 19:30N 78°22' E 009°54'815.2
2019-Jul-20 19:00N 78°16' E 010°19'918.1
2019-Jul-20 18:30N 78°12' E 010°57'918.4
2019-Jul-20 18:00N 78°08' E 011°37'918.3
2019-Jul-20 17:30N 78°05' E 012°20'918.1
2019-Jul-20 17:00N 78°06' E 013°03'918.1
2019-Jul-20 16:30N 78°09' E 013°45'917.9
2019-Jul-20 16:00N 78°12' E 014°26'917.9
2019-Jul-20 15:30N 78°15' E 015°06'612.1
2019-Jul-20 15:00N 78°14' E 015°35'0 0.8
2019-Jul-20 14:28N 78°14' E 015°36'0 0.0
2019-Jul-20 13:58N 78°14' E 015°36'0 0.0
2019-Jul-20 13:28N 78°14' E 015°36'0 0.0
2019-Jul-20 12:58N 78°14' E 015°36'0 0.0
2019-Jul-20 12:28N 78°14' E 015°36'0 0.0
2019-Jul-20 11:58N 78°14' E 015°36'0 0.0
2019-Jul-20 11:28N 78°14' E 015°36'0 0.0
2019-Jul-20 10:58N 78°14' E 015°36'0 0.0
2019-Jul-20 10:28N 78°14' E 015°36'0 0.0
2019-Jul-20 09:58N 78°14' E 015°36'0 0.0
2019-Jul-20 09:28N 78°14' E 015°36'0 0.0
2019-Jul-20 08:58N 78°14' E 015°36'0 0.0
2019-Jul-20 08:28N 78°14' E 015°36'0 0.0
2019-Jul-20 07:58N 78°14' E 015°36'0 0.0
2019-Jul-20 07:28N 78°14' E 015°36'0 0.0
2019-Jul-20 06:58N 78°14' E 015°36'0 0.0
2019-Jul-20 06:28N 78°14' E 015°36'0 0.0
2019-Jul-20 05:58N 78°14' E 015°36'0 0.0
2019-Jul-20 05:28N 78°14' E 015°36'1 2.1
2019-Jul-20 05:00N 78°15' E 015°37'510.0
2019-Jul-20 04:30N 78°16' E 015°14'714.1
2019-Jul-20 04:00N 78°13' E 014°41'714.9
2019-Jul-20 03:30N 78°10' E 014°09'815.8
2019-Jul-20 03:00N 78°08' E 013°32'816.0
2019-Jul-20 02:30N 78°06' E 012°54'816.1
2019-Jul-20 02:00N 78°04' E 012°16'816.4
2019-Jul-20 01:30N 78°02' E 011°37'815.6
2019-Jul-20 01:00N 77°60' E 011°01'816.5
2019-Jul-20 00:31N 77°52' E 010°46'816.4
2019-Jul-20 00:00N 77°45' E 010°30'816.5
2019-Jul-19 23:30N 77°37' E 010°15'816.9
2019-Jul-19 23:00N 77°29' E 009°59'65917.9
2019-Jul-18 10:09N 66°35' E 006°13'317.9
2019-Jul-18 09:59N 66°32' E 006°13'1117.8
2019-Jul-18 09:22N 66°21' E 006°13'717.8
2019-Jul-18 09:00N 66°14' E 006°12'917.7
2019-Jul-18 08:30N 66°05' E 006°11'917.5
2019-Jul-18 07:59N 65°56' E 006°10'917.5
2019-Jul-18 07:30N 65°48' E 006°09'917.7
2019-Jul-18 07:00N 65°39' E 006°08'1117.8
2019-Jul-18 06:23N 65°28' E 006°07'818.1
2019-Jul-18 05:58N 65°20' E 006°06'1018.0
2019-Jul-18 05:25N 65°11' E 006°05'717.9
2019-Jul-18 05:00N 65°03' E 006°04'918.0
2019-Jul-18 04:29N 64°54' E 006°03'1018.0
2019-Jul-18 03:57N 64°44' E 006°03'818.2
2019-Jul-18 03:31N 64°36' E 006°02'918.2
2019-Jul-18 02:59N 64°27' E 006°01'918.4
2019-Jul-18 02:30N 64°18' E 005°60'918.3
2019-Jul-18 01:59N 64°08' E 005°59'918.5
2019-Jul-18 01:30N 63°59' E 005°58'918.5
2019-Jul-18 01:00N 63°50' E 005°57'918.4
2019-Jul-18 00:30N 63°41' E 005°56'918.2
2019-Jul-18 00:00N 63°32' E 005°55'918.1
2019-Jul-17 23:30N 63°23' E 005°52'918.0
2019-Jul-17 23:00N 63°14' E 005°49'918.2
2019-Jul-17 22:31N 63°05' E 005°47'918.1
2019-Jul-17 22:00N 62°56' E 005°44'917.8
2019-Jul-17 21:29N 62°47' E 005°41'817.5
2019-Jul-17 21:01N 62°39' E 005°39'816.3
2019-Jul-17 20:30N 62°30' E 005°42'917.9
2019-Jul-17 20:00N 62°27' E 006°00'5 9.5
2019-Jul-17 19:30N 62°28' E 006°10'0 0.9
2019-Jul-17 19:00N 62°28' E 006°09'0 0.0
2019-Jul-17 18:31N 62°28' E 006°09'0 0.0
2019-Jul-17 18:00N 62°28' E 006°09'0 0.0
2019-Jul-17 17:30N 62°28' E 006°09'0 0.0
2019-Jul-17 17:00N 62°28' E 006°09'0 0.0
2019-Jul-17 16:30N 62°28' E 006°09'0 0.0
2019-Jul-17 16:00N 62°28' E 006°09'0 0.0
2019-Jul-17 15:30N 62°28' E 006°09'0 0.0
2019-Jul-17 15:00N 62°28' E 006°09'0 0.0
2019-Jul-17 14:30N 62°28' E 006°09'0 0.0
2019-Jul-17 14:00N 62°28' E 006°09'0 0.0
2019-Jul-17 13:30N 62°28' E 006°09'0 0.0
2019-Jul-17 13:00N 62°28' E 006°09'0 0.0
2019-Jul-17 12:30N 62°28' E 006°09'0 0.0
2019-Jul-17 12:00N 62°28' E 006°09'0 0.0
2019-Jul-17 11:30N 62°28' E 006°09'0 0.0
2019-Jul-17 11:00N 62°28' E 006°09'0 0.0
2019-Jul-17 10:30N 62°28' E 006°09'0 0.0
2019-Jul-17 10:00N 62°28' E 006°09'0 0.0
2019-Jul-17 09:30N 62°28' E 006°09'0 0.0
2019-Jul-17 09:00N 62°28' E 006°09'0 0.0
2019-Jul-17 08:30N 62°28' E 006°09'0 0.0
2019-Jul-17 08:00N 62°28' E 006°09'0 0.0
2019-Jul-17 07:30N 62°28' E 006°09'0 0.7
2019-Jul-17 07:00N 62°28' E 006°09'3 5.8
2019-Jul-17 06:30N 62°27' E 006°04'612.6
2019-Jul-17 06:00N 62°28' E 005°50'715.2
2019-Jul-17 05:30N 62°32' E 005°36'816.2
2019-Jul-17 05:00N 62°29' E 005°19'816.4
2019-Jul-17 04:30N 62°26' E 005°03'816.7
2019-Jul-17 04:00N 62°22' E 004°46'916.9
2019-Jul-17 03:30N 62°16' E 004°34'917.0
2019-Jul-17 03:00N 62°09' E 004°23'816.7
2019-Jul-17 02:30N 62°02' E 004°14'816.6
2019-Jul-17 02:00N 61°54' E 004°11'917.2
2019-Jul-17 01:30N 61°45' E 004°11'917.4
2019-Jul-17 00:59N 61°37' E 004°10'917.7
2019-Jul-17 00:30N 61°28' E 004°09'917.6
2019-Jul-17 00:00N 61°19' E 004°09'917.6
2019-Jul-16 23:30N 61°10' E 004°08'917.6
2019-Jul-16 23:00N 61°02' E 004°08'917.3
2019-Jul-16 22:30N 60°53' E 004°08'917.3
2019-Jul-16 22:00N 60°44' E 004°08'917.7
2019-Jul-16 21:30N 60°35' E 004°08'918.1
2019-Jul-16 21:00N 60°26' E 004°09'917.8
2019-Jul-16 20:30N 60°18' E 004°10'917.8
2019-Jul-16 20:00N 60°09' E 004°11'918.1
2019-Jul-16 19:30N 59°60' E 004°11'918.3
2019-Jul-16 19:00N 59°50' E 004°11'918.3
2019-Jul-16 18:30N 59°41' E 004°11'918.3
2019-Jul-16 18:00N 59°32' E 004°11'917.6
2019-Jul-16 17:30N 59°23' E 004°11'917.6
2019-Jul-16 17:00N 59°14' E 004°11'917.5
2019-Jul-16 16:30N 59°06' E 004°11'917.6
2019-Jul-16 15:59N 58°57' E 004°12'817.4
2019-Jul-16 15:30N 58°49' E 004°16'917.9
2019-Jul-16 15:00N 58°40' E 004°22'917.8
2019-Jul-16 14:30N 58°32' E 004°27'917.5
2019-Jul-16 14:00N 58°23' E 004°32'917.3
2019-Jul-16 13:28N 58°15' E 004°37'817.2
2019-Jul-16 13:00N 58°07' E 004°42'1019.4
2019-Jul-16 12:30N 57°58' E 004°47'1020.1
2019-Jul-16 12:00N 57°48' E 004°53'919.3
2019-Jul-16 11:30N 57°39' E 004°59'1019.8
2019-Jul-16 11:00N 57°29' E 005°04'1019.9
2019-Jul-16 10:30N 57°20' E 005°10'1119.9
2019-Jul-16 09:58N 57°10' E 005°15'920.0
2019-Jul-16 09:30N 57°01' E 005°20'1020.1
2019-Jul-16 09:00N 56°51' E 005°25'1020.2
2019-Jul-16 08:30N 56°41' E 005°30'1020.3
2019-Jul-16 08:00N 56°31' E 005°31'1020.3
2019-Jul-16 07:30N 56°21' E 005°32'1020.3
2019-Jul-16 06:59N 56°11' E 005°33'1020.3
2019-Jul-16 06:30N 56°01' E 005°34'1020.3
2019-Jul-16 06:00N 55°50' E 005°35'1020.3
2019-Jul-16 05:30N 55°40' E 005°36'1020.2
2019-Jul-16 05:00N 55°30' E 005°36'1020.1
2019-Jul-16 04:30N 55°20' E 005°33'1020.1
2019-Jul-16 04:00N 55°10' E 005°30'1020.2
2019-Jul-16 03:29N 55°00' E 005°28'1020.2
2019-Jul-16 02:59N 54°50' E 005°26'8219.9
2019-Jul-15 22:51N 53°31' E 004°48'513.3
2019-Jul-15 22:30N 53°27' E 004°44'1417.2
2019-Jul-15 21:42N 53°15' E 004°33'519.4
2019-Jul-15 21:25N 53°10' E 004°30'819.3
2019-Jul-15 21:00N 53°03' E 004°23'918.9
2019-Jul-15 20:30N 52°54' E 004°17'917.3
2019-Jul-15 20:00N 52°46' E 004°10'815.7
2019-Jul-15 19:30N 52°39' E 004°07'714.5
2019-Jul-15 19:00N 52°32' E 004°11'816.5
2019-Jul-15 18:30N 52°29' E 004°23'612.6
2019-Jul-15 18:01N 52°28' E 004°33'2 3.7
2019-Jul-15 17:31N 52°28' E 004°37'1 1.9
2019-Jul-15 17:00N 52°28' E 004°38'4 7.2
2019-Jul-15 16:30N 52°26' E 004°43'4 7.3
2019-Jul-15 16:00N 52°25' E 004°49'3 6.6
2019-Jul-15 15:30N 52°24' E 004°54'1 2.3
2019-Jul-15 15:00N 52°23' E 004°55'0 0.1
2019-Jul-15 14:29N 52°23' E 004°55'0 0.0
2019-Jul-15 13:59N 52°23' E 004°55'0 0.0
2019-Jul-15 13:29N 52°23' E 004°55'0 0.0
2019-Jul-15 12:59N 52°23' E 004°55'0 0.0
2019-Jul-15 12:29N 52°23' E 004°55'0 0.0
2019-Jul-15 11:59N 52°23' E 004°55'0 0.0
2019-Jul-15 11:29N 52°23' E 004°55'0 0.0
2019-Jul-15 10:59N 52°23' E 004°55'0 0.0
2019-Jul-15 10:29N 52°23' E 004°55'0 0.0
2019-Jul-15 09:59N 52°23' E 004°55'0 0.0
2019-Jul-15 09:29N 52°23' E 004°55'0 0.0
2019-Jul-15 08:59N 52°23' E 004°55'0 0.0
2019-Jul-15 08:29N 52°23' E 004°55'0 0.0
2019-Jul-15 07:59N 52°23' E 004°55'0 0.0
2019-Jul-15 07:29N 52°23' E 004°55'0 0.0
2019-Jul-15 06:59N 52°23' E 004°55'0 0.0
2019-Jul-15 06:29N 52°23' E 004°55'0 0.0
2019-Jul-15 05:59N 52°23' E 004°55'0 0.0
2019-Jul-15 05:29N 52°23' E 004°55'0 0.0
2019-Jul-15 04:59N 52°23' E 004°55'0 0.0
2019-Jul-15 04:29N 52°23' E 004°55'0 0.2
2019-Jul-15 04:01N 52°23' E 004°55'0 0.1
2019-Jul-15 03:31N 52°23' E 004°55'2 4.9
2019-Jul-15 03:01N 52°25' E 004°52'3 5.9
2019-Jul-15 02:31N 52°25' E 004°48'4 7.2
2019-Jul-15 02:01N 52°26' E 004°42'3 6.8
2019-Jul-15 01:30N 52°28' E 004°37'0 0.6
2019-Jul-15 01:01N 52°28' E 004°37'2 3.9
2019-Jul-15 00:30N 52°28' E 004°33'510.9
2019-Jul-15 00:00N 52°29' E 004°24'816.0
2019-Jul-14 23:30N 52°29' E 004°11'816.8
2019-Jul-14 23:00N 52°36' E 004°04'1320.7
2019-Jul-14 22:24N 52°48' E 003°57'821.0
2019-Jul-14 22:00N 52°56' E 003°60'1121.2
2019-Jul-14 21:30N 53°04' E 004°12'1121.6
2019-Jul-14 21:00N 53°12' E 004°24'1121.7
2019-Jul-14 20:30N 53°22' E 004°30'1221.4
2019-Jul-14 19:58N 53°33' E 004°37'1121.9
2019-Jul-14 19:27N 53°43' E 004°43'1822.5
2019-Jul-14 18:39N 53°60' E 004°56'1022.4
2019-Jul-14 18:13N 54°09' E 005°02'622.3
2019-Jul-14 17:57N 54°14' E 005°08'1322.4
2019-Jul-14 17:22N 54°24' E 005°20'822.4
2019-Jul-14 16:59N 54°32' E 005°28'1122.6
2019-Jul-14 16:30N 54°41' E 005°38'1020.9
2019-Jul-14 16:00N 54°50' E 005°46'1120.7
2019-Jul-14 15:30N 54°60' E 005°55'1020.8
2019-Jul-14 15:00N 55°09' E 006°02'1020.7
2019-Jul-14 14:30N 55°18' E 006°10'1020.6
2019-Jul-14 13:59N 55°28' E 006°19'1020.6
2019-Jul-14 13:30N 55°36' E 006°27'1020.6
2019-Jul-14 13:00N 55°46' E 006°36'1020.6
2019-Jul-14 12:30N 55°55' E 006°44'1020.6
2019-Jul-14 12:00N 56°04' E 006°52'1020.5
2019-Jul-14 11:30N 56°13' E 006°59'1120.6
2019-Jul-14 11:00N 56°22' E 007°10'1020.7
2019-Jul-14 10:29N 56°31' E 007°19'1020.8
2019-Jul-14 09:59N 56°40' E 007°27'1020.9
2019-Jul-14 09:30N 56°49' E 007°37'1021.1
2019-Jul-14 09:00N 56°58' E 007°47'1020.8
2019-Jul-14 08:30N 57°07' E 007°56'1020.1
2019-Jul-14 08:00N 57°15' E 008°08'1020.1
2019-Jul-14 07:30N 57°22' E 008°21'1020.5
2019-Jul-14 07:00N 57°27' E 008°37'1020.3
2019-Jul-14 06:30N 57°33' E 008°54'1020.4
2019-Jul-14 06:00N 57°38' E 009°10'1020.3
2019-Jul-14 05:30N 57°43' E 009°26'1020.4
2019-Jul-14 05:00N 57°47' E 009°44'1020.4
2019-Jul-14 04:30N 57°51' E 010°01'1020.8
2019-Jul-14 04:00N 57°51' E 010°21'1020.3
2019-Jul-14 03:30N 57°51' E 010°40'1019.0
2019-Jul-14 03:00N 57°46' E 010°55'1020.1
2019-Jul-14 02:30N 57°39' E 011°08'1020.5
2019-Jul-14 02:00N 57°32' E 011°23'1020.3
2019-Jul-14 01:30N 57°23' E 011°32'1121.1
2019-Jul-14 01:00N 57°13' E 011°38'1020.5
2019-Jul-14 00:30N 57°03' E 011°45'1121.2
2019-Jul-14 00:00N 56°53' E 011°50'1020.1
2019-Jul-13 23:30N 56°44' E 011°57'1020.0
2019-Jul-13 23:00N 56°34' E 012°00'816.3
2019-Jul-13 22:30N 56°26' E 012°01'1019.2
2019-Jul-13 22:00N 56°17' E 012°09'1020.2
2019-Jul-13 21:30N 56°12' E 012°24'1020.1
2019-Jul-13 21:01N 56°05' E 012°37'816.8
2019-Jul-13 20:31N 55°57' E 012°43'816.5
2019-Jul-13 20:00N 55°49' E 012°44'713.4
2019-Jul-13 19:30N 55°43' E 012°38'1 2.9
2019-Jul-13 19:00N 55°42' E 012°36'0 0.0
2019-Jul-13 18:30N 55°42' E 012°36'0 0.0
2019-Jul-13 18:00N 55°42' E 012°36'0 0.0
2019-Jul-13 17:30N 55°42' E 012°36'0 0.0
2019-Jul-13 17:00N 55°42' E 012°36'0 0.0
2019-Jul-13 16:30N 55°42' E 012°36'0 0.0
2019-Jul-13 16:00N 55°42' E 012°36'0 0.0
2019-Jul-13 15:30N 55°42' E 012°36'0 0.0
2019-Jul-13 15:00N 55°42' E 012°36'0 0.0
2019-Jul-13 14:30N 55°42' E 012°36'0 0.0
2019-Jul-13 14:00N 55°42' E 012°36'0 0.0
2019-Jul-13 13:30N 55°42' E 012°36'0 0.0
2019-Jul-13 13:00N 55°42' E 012°36'0 0.0
2019-Jul-13 12:30N 55°42' E 012°36'0 0.0
2019-Jul-13 12:00N 55°42' E 012°36'0 0.0
2019-Jul-13 11:30N 55°42' E 012°36'0 0.0
2019-Jul-13 11:00N 55°42' E 012°36'0 0.0
2019-Jul-13 10:30N 55°42' E 012°36'0 0.0
2019-Jul-13 10:00N 55°42' E 012°36'0 0.0
2019-Jul-13 09:30N 55°42' E 012°36'0 0.0
2019-Jul-13 09:00N 55°42' E 012°36'0 0.0
2019-Jul-13 08:30N 55°42' E 012°36'0 0.0
2019-Jul-13 08:00N 55°42' E 012°36'0 0.0
2019-Jul-13 07:30N 55°42' E 012°36'0 0.0
2019-Jul-13 07:00N 55°42' E 012°36'0 0.0
2019-Jul-13 06:30N 55°42' E 012°36'0 0.0
2019-Jul-13 06:00N 55°42' E 012°36'0 0.0
2019-Jul-13 05:30N 55°42' E 012°36'0 0.8
2019-Jul-13 05:00N 55°42' E 012°36'5 9.5
2019-Jul-13 04:31N 55°46' E 012°42'611.4
2019-Jul-13 04:01N 55°52' E 012°41'612.6
2019-Jul-13 03:30N 55°58' E 012°40'714.1
2019-Jul-13 03:00N 56°05' E 012°36'714.2
2019-Jul-13 02:30N 56°09' E 012°25'714.9
2019-Jul-13 02:01N 56°13' E 012°15'815.3
2019-Jul-13 01:30N 56°18' E 012°04'815.2
2019-Jul-13 01:00N 56°22' E 011°52'715.1
2019-Jul-13 00:31N 56°21' E 011°39'715.0
2019-Jul-13 00:01N 56°18' E 011°26'815.7
2019-Jul-12 23:30N 56°12' E 011°18'815.6
2019-Jul-12 23:00N 56°06' E 011°10'1418.0
2019-Jul-12 22:12N 55°54' E 010°56'1717.0
2019-Jul-12 21:13N 55°38' E 010°49'418.2
2019-Jul-12 20:59N 55°33' E 010°52'817.5
2019-Jul-12 20:31N 55°26' E 010°59'917.4
2019-Jul-12 20:00N 55°18' E 011°03'816.8
2019-Jul-12 19:30N 55°09' E 011°04'918.1
2019-Jul-12 19:01N 55°00' E 011°02'918.1
2019-Jul-12 18:31N 54°53' E 010°54'918.4
2019-Jul-12 18:01N 54°44' E 010°52'917.5
2019-Jul-12 17:31N 54°38' E 011°04'918.9
2019-Jul-12 17:01N 54°34' E 011°19'1121.0
2019-Jul-12 16:31N 54°30' E 011°35'1019.9
2019-Jul-12 16:00N 54°27' E 011°52'1020.1
2019-Jul-12 15:31N 54°26' E 012°09'1019.1
2019-Jul-12 15:00N 54°35' E 012°16'1220.1
2019-Jul-12 14:24N 54°43' E 012°31'820.3
2019-Jul-12 14:00N 54°48' E 012°43'1220.4
2019-Jul-12 13:24N 54°51' E 013°03'1621.2
2019-Jul-12 12:39N 54°56' E 013°29'319.8
2019-Jul-12 12:29N 54°57' E 013°35'919.7
2019-Jul-12 12:00N 55°01' E 013°50'1120.7
2019-Jul-12 11:29N 55°06' E 014°07'1020.9
2019-Jul-12 11:00N 55°14' E 014°17'1120.8
2019-Jul-12 10:29N 55°23' E 014°28'1020.3
2019-Jul-12 10:01N 55°28' E 014°41'1020.6
2019-Jul-12 09:31N 55°33' E 014°58'1020.9
2019-Jul-12 09:01N 55°37' E 015°14'1020.8
2019-Jul-12 08:31N 55°43' E 015°30'1120.7
2019-Jul-12 07:59N 55°49' E 015°47'1420.8
2019-Jul-12 07:19N 55°56' E 016°08'720.9
2019-Jul-12 07:00N 55°59' E 016°18'  

Dump ship's entire track history